Terminal Aerodrome Forecast
Issued by NWS

Home | Current Version | Previous Version | Text Only | Print | Product List | Glossary On
Versions: 1 2 3 4 5 6 7 8 9 10 11 12 13 14 15 16
000
FTUS45 KABQ 191700
TAFLVS
TAF
KLVS 191735Z 1918/2018 24015G25KT P6SM VCSH SCT040 BKN080
      TEMPO 1918/1920 VRB20G30KT 6SM -TSRA SCT025 BKN040CB
     FM200000 24015KT P6SM VCSH SCT015 OVC040
     FM200500 21010KT P6SM VCTS SCT015 OVC040CB
     FM200800 21010KT P6SM VCSH SCT015 OVC040
     FM201700 33010KT P6SM SCT025 OVC060=

USA.gov is the U.S. government's official web portal to all federal, state and local government web resources and services.